Paynesville, MN

6:59 AM CDT on July 10, 2014 (GMT -0500)
Paynesville (KPEX) Elev 1181 ft | 45.37 °N, 94.74 °W | Change Station

Current weather conditions updated 4 minutes ago

Clear
Clear
51 °F
Feels Like 51 °F
N
0
Wind Variable Wind from North

Today is forecast to be Much Warmer than yesterday. Showers late tonight.

Today
High -- | Low -- °F
--% Chance of Precip.
Yesterday
High -- | Low -- °F
Precip. -- in
5:40 AM 9:07 PM
Waxing Gibbous, 94% visible
Pressure 30.04 in
Visibility 10.0 miles
Clouds Clear
Dew Point 51 °F
Humidity 100%
Rainfall 0.00 in
Snow Depth Not available.
UV 1 out of 12
Pollen 4.10 out of 12
Air Quality Not available.
Flu Activity Sporadic
METAR KPEX 101155Z AUTO 00000KT 10SM CLR 11/11 A3004 RMK AO2 T01070108 10110 20085

More Conditions Fewer Conditions

Pressure 30.04 in
Visibility 10.0 miles
Clouds Clear
Dew Point 51 °F
Humidity 100%
Rainfall 0.00 in
Snow Depth Not available.
UV 1 out of 12
Pollen 4.10 out of 12
Air Quality Not available.
Flu Activity Sporadic
METAR KPEX 101155Z AUTO 00000KT 10SM CLR 11/11 A3004 RMK AO2 T01070108 10110 20085

More Conditions Fewer Conditions

10-Day Weather Forecast

Almanac

Astronomy

Jul. 10, 2014 Rise Set
Actual Time 5:40 AM CDT 9:07 PM CDT
Civil Twilight 5:04 AM CDT 9:44 PM CDT
Nautical Twilight 4:15 AM CDT 10:32 PM CDT
Astronomical Twilight 3:13 AM CDT 11:34 PM CDT
Moon 7:18 PM CDT 3:56 AM CDT
Length of Visible Light 16h 40m
Length of Day
15h 26m
Tomorrow will be 1m 24s shorter.
Waxing Gibbous, 94% of the Moon is Illuminated
Today
Waxing Gibbous
Jul 12
Full
Jul 18
Last Quarter
Jul 26
New
Aug 3
First Quarter

Today's Extremes

State Highs State Lows

Community

WunderPhotos

Upload Photos

1,732,096 photos uploaded!

Nearby

Snow Depth

Station Depth Elevation
No new snow has been reported.

Earthquake Activity

City Distance Mag. Time & Date
No recent earthquake activity has been reported nearby.
Minimum magnitude displayed is 2.5.

Coastal Water Temperatures

Place Temperature
No Stations Reporting

Nearby Weather Stations

Station Location Temp. Dew Point Humidity Wind Precip. Elev Updated Type
Sibley, New London, MN 54.7 °F 51 °F 87% ESE  at  0.0 mph - / hr 1260 ft 6:46 AM CDT Normal
George Lake, Spicer, MN 56.9 °F 54 °F 91% NE  at  0.0 mph 0.00 in / hr 1171 ft 6:59 AM CDT Normal
Century Estates, Cold Spring, MN 55.3 °F 54 °F 96% SE  at  0.0 mph 0.00 in / hr 1165 ft 3:15 AM CDT Normal
Lake Florida, Spicer, MN 66.3 °F 55 °F 68% NNE  at  4.0 mph 0.00 in / hr 1129 ft 6:55 AM CDT Normal
Willmar, Willmar, MN 62.8 °F 52 °F 69% ENE  at  1.0 mph 0.00 in / hr 1188 ft 6:52 AM CDT Normal
North of Kimball, Kimball, MN 64.5 °F 52 °F 65% NNE  at  0.0 mph 0.00 in / hr 1260 ft 6:59 AM CDT Rapid Fire
Saint Johns University Campus, Collegeville, MN 59.5 °F 58 °F 96% WNW  at  0.0 mph 0.00 in / hr 1200 ft 6:59 AM CDT Rapid Fire
RAWS LITCHFIELD MN, Litchfield, MN 52 °F 51 °F 96% North  at  0 mph 0.00 in / hr 1076 ft 5:11 AM CDT MADIS

Show More Stations Show Fewer Stations